Time;durP1;ratioP1;P1;durP2;ratioP2;P2;SDS_P1;SDS_P2;PMS_P1;PMS_P2;Temp;Humidity;BMP_temperature;BMP_pressure;BME280_temperature;BME280_humidity;BME280_pressure;Samples;Min_cycle;Max_cycle;Signal;HPM_P1;HPM_P2
2022/04/23 00:01:48;;;;;;;;;;;13.00;92.00;;;;;;5051066;28;19948;-72
2022/04/23 00:04:14;;;;;;;;;;;13.00;91.60;;;;;;5050224;28;19905;-73
2022/04/23 00:06:40;;;;;;;;;;;13.00;91.60;;;;;;5049817;28;19912;-73
2022/04/23 00:09:05;;;;;;;;;;;13.00;91.50;;;;;;5050910;28;19913;-73
2022/04/23 00:11:32;;;;;;;;;;;12.90;91.40;;;;;;5050912;28;19908;-73
2022/04/23 00:13:58;;;;;;;;;;;12.90;91.20;;;;;;5050913;28;19932;-73
2022/04/23 00:16:24;;;;;;;;;;;12.90;91.20;;;;;;5050326;28;20352;-73
2022/04/23 00:18:50;;;;;;;;;;;12.80;91.00;;;;;;5050936;28;19919;-72
2022/04/23 00:21:18;;;;;;;;;;;12.80;90.90;;;;;;5050975;28;20228;-73
2022/04/23 00:23:45;;;;;;;;;;;12.80;90.80;;;;;;5050923;28;19909;-74
2022/04/23 00:26:10;;;;;;;;;;;12.80;90.70;;;;;;5050750;28;20366;-73
2022/04/23 00:28:36;;;;;;;;;;;12.70;90.60;;;;;;5051321;28;19904;-73
2022/04/23 00:31:02;;;;;;;;;;;12.60;90.50;;;;;;5051096;28;19909;-73
2022/04/23 00:33:27;;;;;;;;;;;12.60;90.50;;;;;;5050768;28;19920;-72
2022/04/23 00:35:53;;;;;;;;;;;12.50;90.30;;;;;;5053693;28;20386;-73
2022/04/23 00:38:18;;;;;;;;;;;12.50;90.30;;;;;;5054065;28;19920;-73
2022/04/23 00:40:44;;;;;;;;;;;12.50;90.30;;;;;;5054633;28;19971;-73
2022/04/23 00:43:24;;;;;;;;;;;12.40;90.20;;;;;;5054238;28;20022;-73
2022/04/23 00:45:49;;;;;;;;;;;12.40;90.20;;;;;;5054382;28;20329;-73
2022/04/23 00:48:15;;;;;;;;;;;12.40;90.20;;;;;;5054025;28;19944;-74
2022/04/23 00:50:40;;;;;;;;;;;12.40;90.20;;;;;;5053926;28;20399;-74
2022/04/23 00:53:06;;;;;;;;;;;12.40;90.20;;;;;;5054047;28;20297;-74
2022/04/23 00:55:32;;;;;;;;;;;12.30;90.20;;;;;;5054561;28;20470;-74
2022/04/23 00:57:58;;;;;;;;;;;12.30;90.20;;;;;;5054071;28;19908;-73
2022/04/23 01:00:25;;;;;;;;;;;12.20;90.20;;;;;;5053880;28;19909;-74
2022/04/23 01:02:53;;;;;;;;;;;12.20;90.40;;;;;;5053458;28;19912;-74
2022/04/23 01:05:20;;;;;;;;;;;12.20;90.30;;;;;;5053796;28;19986;-73
2022/04/23 01:07:45;;;;;;;;;;;12.20;90.40;;;;;;5053088;28;19909;-74
2022/04/23 01:10:14;;;;;;;;;;;12.20;90.60;;;;;;5054031;28;19909;-74
2022/04/23 01:12:39;;;;;;;;;;;12.10;90.60;;;;;;5053628;28;19944;-73
2022/04/23 01:15:06;;;;;;;;;;;12.10;90.70;;;;;;5053639;28;19944;-73
2022/04/23 01:17:32;;;;;;;;;;;12.00;90.70;;;;;;5053496;28;19909;-73
2022/04/23 01:19:57;;;;;;;;;;;12.10;90.70;;;;;;5053375;28;19905;-74
2022/04/23 01:22:24;;;;;;;;;;;12.00;90.80;;;;;;5053802;28;20262;-73
2022/04/23 01:24:54;;;;;;;;;;;12.00;90.70;;;;;;5053484;28;19916;-73
2022/04/23 01:27:23;;;;;;;;;;;12.00;90.80;;;;;;5053424;28;19986;-74
2022/04/23 01:29:48;;;;;;;;;;;12.00;90.80;;;;;;5052318;28;19940;-74
2022/04/23 01:32:14;;;;;;;;;;;11.90;90.80;;;;;;5053274;28;20436;-73
2022/04/23 01:34:39;;;;;;;;;;;11.90;90.80;;;;;;5053438;28;19905;-74
2022/04/23 01:37:04;;;;;;;;;;;11.90;90.70;;;;;;5052757;28;19916;-73
2022/04/23 01:39:30;;;;;;;;;;;11.90;90.80;;;;;;5053104;28;20239;-74
2022/04/23 01:41:55;;;;;;;;;;;11.90;90.80;;;;;;5051983;28;19909;-73
2022/04/23 01:44:21;;;;;;;;;;;11.80;90.70;;;;;;5053026;28;20242;-72
2022/04/23 01:46:46;;;;;;;;;;;11.80;90.70;;;;;;5051625;28;19974;-73
2022/04/23 01:49:12;;;;;;;;;;;11.80;90.60;;;;;;5051788;28;19909;-73
2022/04/23 01:51:38;;;;;;;;;;;11.70;90.60;;;;;;5051868;28;19991;-73
2022/04/23 01:54:03;;;;;;;;;;;11.70;90.90;;;;;;5052804;28;20339;-73
2022/04/23 01:56:29;;;;;;;;;;;11.60;90.50;;;;;;5052671;28;19908;-73
2022/04/23 01:58:54;;;;;;;;;;;11.60;90.50;;;;;;5052653;28;19958;-74
2022/04/23 02:01:19;;;;;;;;;;;11.60;90.50;;;;;;5052063;28;19900;-74
2022/04/23 02:03:46;;;;;;;;;;;11.50;90.50;;;;;;5052758;28;19963;-74
2022/04/23 02:06:15;;;;;;;;;;;11.50;90.40;;;;;;5052540;28;19913;-74
2022/04/23 02:08:41;;;;;;;;;;;11.40;90.50;;;;;;5052652;28;19921;-74
2022/04/23 02:11:06;;;;;;;;;;;11.50;90.40;;;;;;5051322;28;19915;-74
2022/04/23 02:13:32;;;;;;;;;;;11.40;90.30;;;;;;5052778;28;20116;-73
2022/04/23 02:15:57;;;;;;;;;;;11.40;90.30;;;;;;5052376;28;19909;-73
2022/04/23 02:18:23;;;;;;;;;;;11.30;90.20;;;;;;5052385;28;20257;-74
2022/04/23 02:20:49;;;;;;;;;;;11.40;90.30;;;;;;5052406;28;20582;-75
2022/04/23 02:23:14;;;;;;;;;;;11.30;90.20;;;;;;5052284;28;20089;-74
2022/04/23 02:25:40;;;;;;;;;;;11.30;90.20;;;;;;5052542;28;20341;-74
2022/04/23 02:28:05;;;;;;;;;;;11.30;90.10;;;;;;5052250;28;19971;-74
2022/04/23 02:30:32;;;;;;;;;;;11.30;90.10;;;;;;5052075;28;19939;-74
2022/04/23 02:32:57;;;;;;;;;;;11.20;90.10;;;;;;5052198;28;19948;-73
2022/04/23 02:35:23;;;;;;;;;;;11.20;90.10;;;;;;5052130;28;20350;-75
2022/04/23 02:37:53;;;;;;;;;;;11.10;90.10;;;;;;5051920;28;19917;-74
2022/04/23 02:40:18;;;;;;;;;;;11.10;90.10;;;;;;5052300;28;19912;-74
2022/04/23 02:42:44;;;;;;;;;;;11.10;90.00;;;;;;5052028;28;19909;-74
2022/04/23 02:45:11;;;;;;;;;;;11.10;90.00;;;;;;5051711;28;19924;-74
2022/04/23 02:48:02;;;;;;;;;;;11.10;90.00;;;;;;5051870;28;19976;-74
2022/04/23 02:50:32;;;;;;;;;;;11.10;90.00;;;;;;5049754;28;19938;-74
2022/04/23 02:52:58;;;;;;;;;;;11.00;90.20;;;;;;5051861;28;19915;-74
2022/04/23 02:55:24;;;;;;;;;;;11.00;90.00;;;;;;5051261;28;19905;-73
2022/04/23 02:57:50;;;;;;;;;;;10.90;89.90;;;;;;5050890;28;20277;-74
2022/04/23 03:00:16;;;;;;;;;;;10.90;89.90;;;;;;5050582;28;19970;-74
2022/04/23 03:02:41;;;;;;;;;;;10.90;89.90;;;;;;5051565;28;19912;-73
2022/04/23 03:05:09;;;;;;;;;;;10.80;90.00;;;;;;5051580;28;19978;-73
2022/04/23 03:07:35;;;;;;;;;;;10.80;90.10;;;;;;5051966;28;19908;-75
2022/04/23 03:10:04;;;;;;;;;;;10.70;90.10;;;;;;5051748;28;19920;-75
2022/04/23 03:12:30;;;;;;;;;;;10.70;90.10;;;;;;5051466;28;19909;-74
2022/04/23 03:14:56;;;;;;;;;;;10.70;90.10;;;;;;5051514;28;19912;-74
2022/04/23 03:17:21;;;;;;;;;;;10.70;90.20;;;;;;5051433;28;19987;-75
2022/04/23 03:19:47;;;;;;;;;;;10.60;90.20;;;;;;5051747;28;19909;-75
2022/04/23 03:22:16;;;;;;;;;;;10.60;90.20;;;;;;5051531;28;19909;-74
2022/04/23 03:24:41;;;;;;;;;;;10.60;90.30;;;;;;5051512;28;19970;-75
2022/04/23 03:27:07;;;;;;;;;;;10.50;90.40;;;;;;5051402;28;20347;-74
2022/04/23 03:29:33;;;;;;;;;;;10.50;90.30;;;;;;5051415;28;19920;-75
2022/04/23 03:31:59;;;;;;;;;;;10.50;90.30;;;;;;5051332;28;19905;-75
2022/04/23 03:34:24;;;;;;;;;;;10.50;90.50;;;;;;5051581;28;19974;-75
2022/04/23 03:36:50;;;;;;;;;;;10.50;90.50;;;;;;5051247;28;19912;-75
2022/04/23 03:39:15;;;;;;;;;;;10.40;90.60;;;;;;5050905;28;19924;-75
2022/04/23 03:41:41;;;;;;;;;;;10.30;90.70;;;;;;5051193;28;19909;-75
2022/04/23 03:44:06;;;;;;;;;;;10.20;90.80;;;;;;5051241;28;20453;-75
2022/04/23 03:46:32;;;;;;;;;;;10.20;90.90;;;;;;5051500;28;19904;-75
2022/04/23 03:48:58;;;;;;;;;;;10.20;91.00;;;;;;5051109;28;20351;-75
2022/04/23 03:51:23;;;;;;;;;;;10.20;91.00;;;;;;5051017;28;20171;-75
2022/04/23 03:53:49;;;;;;;;;;;10.10;91.10;;;;;;5051078;28;20243;-74
2022/04/23 03:56:15;;;;;;;;;;;10.10;91.20;;;;;;5051049;28;19973;-74
2022/04/23 03:58:41;;;;;;;;;;;10.10;91.30;;;;;;5051810;28;19909;-74
2022/04/23 04:01:07;;;;;;;;;;;10.10;91.30;;;;;;5051095;28;19908;-74
2022/04/23 04:03:32;;;;;;;;;;;10.10;91.40;;;;;;5050935;28;19919;-74
2022/04/23 04:05:58;;;;;;;;;;;10.00;91.40;;;;;;5049894;28;19939;-75
2022/04/23 04:08:23;;;;;;;;;;;9.90;92.10;;;;;;5050885;28;20350;-74
2022/04/23 04:10:49;;;;;;;;;;;9.90;92.30;;;;;;5054176;28;19952;-74
2022/04/23 04:13:14;;;;;;;;;;;9.90;92.30;;;;;;5055154;28;19901;-74
2022/04/23 04:15:41;;;;;;;;;;;9.90;92.40;;;;;;5054733;28;19994;-74
2022/04/23 04:18:07;;;;;;;;;;;9.90;92.50;;;;;;5054716;28;19912;-74
2022/04/23 04:20:32;;;;;;;;;;;9.80;92.70;;;;;;5053543;28;19928;-74
2022/04/23 04:22:58;;;;;;;;;;;9.80;92.80;;;;;;5054579;28;20482;-74
2022/04/23 04:25:23;;;;;;;;;;;9.80;92.80;;;;;;5055169;28;20331;-74
2022/04/23 04:27:49;;;;;;;;;;;9.80;92.90;;;;;;5054456;28;19971;-74
2022/04/23 04:30:15;;;;;;;;;;;9.80;92.90;;;;;;5054387;28;19909;-74
2022/04/23 04:32:41;;;;;;;;;;;9.80;93.10;;;;;;5054408;28;20341;-75
2022/04/23 04:35:07;;;;;;;;;;;9.70;93.10;;;;;;5054354;28;19905;-74
2022/04/23 04:37:33;;;;;;;;;;;9.70;93.20;;;;;;5054653;28;20413;-74
2022/04/23 04:39:58;;;;;;;;;;;9.80;93.30;;;;;;5053180;28;20402;-74
2022/04/23 04:42:24;;;;;;;;;;;9.80;93.30;;;;;;5054206;28;20038;-74
2022/04/23 04:44:49;;;;;;;;;;;9.80;93.30;;;;;;5054123;28;20342;-75
2022/04/23 04:47:16;;;;;;;;;;;9.70;93.40;;;;;;5054055;28;19916;-74
2022/04/23 04:49:42;;;;;;;;;;;9.70;93.40;;;;;;5054636;28;19908;-74
2022/04/23 04:52:07;;;;;;;;;;;9.70;93.40;;;;;;5054300;28;19913;-74
2022/04/23 04:54:33;;;;;;;;;;;9.80;93.40;;;;;;5054025;28;19909;-74
2022/04/23 04:56:59;;;;;;;;;;;9.80;93.30;;;;;;5053851;28;20006;-74
2022/04/23 04:59:25;;;;;;;;;;;9.90;93.40;;;;;;5053910;28;19912;-74
2022/04/23 05:01:51;;;;;;;;;;;9.80;93.40;;;;;;5053983;28;19967;-75
2022/04/23 05:04:17;;;;;;;;;;;9.80;93.40;;;;;;5054535;28;19996;-73
2022/04/23 05:06:42;;;;;;;;;;;9.80;93.40;;;;;;5052786;28;19919;-74
2022/04/23 05:09:08;;;;;;;;;;;9.80;93.40;;;;;;5053792;28;19971;-74
2022/04/23 05:11:33;;;;;;;;;;;9.80;93.50;;;;;;5053579;28;19966;-74
2022/04/23 05:13:59;;;;;;;;;;;9.70;93.50;;;;;;5053760;28;20318;-74
2022/04/23 05:16:24;;;;;;;;;;;9.70;93.50;;;;;;5053898;28;19912;-74
2022/04/23 05:18:50;;;;;;;;;;;9.80;93.50;;;;;;5053486;28;20325;-74
2022/04/23 05:21:16;;;;;;;;;;;9.80;93.60;;;;;;5052396;28;19912;-74
2022/04/23 05:23:41;;;;;;;;;;;9.80;93.50;;;;;;5053606;28;19996;-73
2022/04/23 05:26:09;;;;;;;;;;;9.90;93.40;;;;;;5053240;28;19913;-73
2022/04/23 05:28:35;;;;;;;;;;;9.80;93.40;;;;;;5053566;28;19915;-73
2022/04/23 05:31:00;;;;;;;;;;;9.90;93.40;;;;;;5052109;28;19916;-74
2022/04/23 05:33:26;;;;;;;;;;;9.90;93.30;;;;;;5053107;28;19913;-76
2022/04/23 05:35:51;;;;;;;;;;;10.00;92.80;;;;;;5052972;28;20428;-74
2022/04/23 05:38:20;;;;;;;;;;;10.00;92.80;;;;;;5052798;28;20164;-74
2022/04/23 05:40:46;;;;;;;;;;;9.90;93.30;;;;;;5052460;28;20066;-75
2022/04/23 05:43:12;;;;;;;;;;;10.00;92.80;;;;;;5052978;28;19908;-74
2022/04/23 05:45:37;;;;;;;;;;;10.00;92.70;;;;;;5051731;28;19924;-74
2022/04/23 05:48:03;;;;;;;;;;;10.10;92.70;;;;;;5051789;28;19959;-73
2022/04/23 05:50:29;;;;;;;;;;;10.10;92.60;;;;;;5052740;28;19908;-74
2022/04/23 05:52:55;;;;;;;;;;;10.10;92.50;;;;;;5051722;28;20361;-74
2022/04/23 05:55:20;;;;;;;;;;;10.10;92.40;;;;;;5053542;28;19986;-74
2022/04/23 05:57:47;;;;;;;;;;;10.20;92.30;;;;;;5052753;28;19963;-75
2022/04/23 06:00:12;;;;;;;;;;;10.30;92.20;;;;;;5052744;28;19962;-75
2022/04/23 06:02:38;;;;;;;;;;;10.30;92.20;;;;;;5051540;28;19909;-74
2022/04/23 06:05:04;;;;;;;;;;;10.40;92.10;;;;;;5052513;28;19912;-74
2022/04/23 06:07:30;;;;;;;;;;;10.30;92.00;;;;;;5052881;28;19909;-74
2022/04/23 06:09:56;;;;;;;;;;;10.40;92.00;;;;;;5052676;28;19996;-74
2022/04/23 06:12:22;;;;;;;;;;;10.50;91.90;;;;;;5051382;28;19987;-75
2022/04/23 06:14:49;;;;;;;;;;;10.50;91.70;;;;;;5052349;28;19938;-74
2022/04/23 06:17:14;;;;;;;;;;;10.50;91.60;;;;;;5052362;28;20283;-74
2022/04/23 06:19:40;;;;;;;;;;;10.50;91.60;;;;;;5052617;28;19915;-74
2022/04/23 06:22:06;;;;;;;;;;;10.60;91.50;;;;;;5052127;28;20342;-73
2022/04/23 06:24:31;;;;;;;;;;;10.70;91.40;;;;;;5052146;28;20311;-74
2022/04/23 06:26:57;;;;;;;;;;;10.70;91.30;;;;;;5052049;28;19916;-74
2022/04/23 06:29:22;;;;;;;;;;;10.80;91.20;;;;;;5052080;28;19909;-74
2022/04/23 06:31:48;;;;;;;;;;;10.80;91.00;;;;;;5051878;28;20368;-73
2022/04/23 06:34:14;;;;;;;;;;;10.80;90.90;;;;;;5052278;28;20381;-74
2022/04/23 06:36:40;;;;;;;;;;;10.90;90.90;;;;;;5051842;28;20257;-75
2022/04/23 06:39:05;;;;;;;;;;;10.90;90.60;;;;;;5051803;28;20401;-74
2022/04/23 06:41:31;;;;;;;;;;;11.00;90.50;;;;;;5051670;28;19988;-74
2022/04/23 06:43:56;;;;;;;;;;;11.00;90.10;;;;;;5051696;28;19920;-74
2022/04/23 06:46:22;;;;;;;;;;;11.00;90.10;;;;;;5052112;28;20353;-75
2022/04/23 06:48:48;;;;;;;;;;;11.10;89.80;;;;;;5051757;28;19924;-74
2022/04/23 06:51:13;;;;;;;;;;;11.20;89.70;;;;;;5051900;28;19979;-75
2022/04/23 06:53:38;;;;;;;;;;;11.30;89.30;;;;;;5051588;28;19908;-75
2022/04/23 06:56:07;;;;;;;;;;;11.30;88.70;;;;;;5051480;28;19904;-75
2022/04/23 06:58:32;;;;;;;;;;;11.40;88.70;;;;;;5052014;28;19907;-75
2022/04/23 07:00:58;;;;;;;;;;;11.50;88.20;;;;;;5051970;28;19913;-75
2022/04/23 07:03:24;;;;;;;;;;;11.60;87.70;;;;;;5050856;28;19920;-76
2022/04/23 07:05:51;;;;;;;;;;;11.70;87.40;;;;;;5051804;28;20003;-75
2022/04/23 07:08:17;;;;;;;;;;;11.90;87.10;;;;;;5051399;28;19931;-74
2022/04/23 07:10:44;;;;;;;;;;;12.00;86.60;;;;;;5051053;28;20343;-75
2022/04/23 07:13:10;;;;;;;;;;;12.40;85.50;;;;;;5051690;28;19980;-73
2022/04/23 07:15:36;;;;;;;;;;;13.10;84.00;;;;;;5050391;28;19920;-73
2022/04/23 07:18:01;;;;;;;;;;;13.90;82.60;;;;;;5051281;28;19908;-73
2022/04/23 07:20:27;;;;;;;;;;;14.70;81.40;;;;;;5051409;28;19923;-74
2022/04/23 07:25:37;;;;;;;;;;;15.60;76.10;;;;;;5051666;28;20185;-75
2022/04/23 07:28:03;;;;;;;;;;;16.20;75.10;;;;;;5051223;28;19909;-74
2022/04/23 07:30:29;;;;;;;;;;;16.80;72.70;;;;;;5051334;28;19962;-76
2022/04/23 07:32:55;;;;;;;;;;;17.00;70.50;;;;;;5051410;28;19963;-75
2022/04/23 07:38:11;;;;;;;;;;;18.30;67.60;;;;;;5050868;28;19928;-74
2022/04/23 07:40:40;;;;;;;;;;;18.90;65.00;;;;;;5051692;28;19904;-75
2022/04/23 07:43:10;;;;;;;;;;;19.50;62.80;;;;;;5050921;28;19974;-75
2022/04/23 07:45:36;;;;;;;;;;;20.10;60.80;;;;;;5052933;28;19957;-75
2022/04/23 07:48:02;;;;;;;;;;;20.70;58.80;;;;;;5055090;28;19909;-75
2022/04/23 07:50:30;;;;;;;;;;;20.70;57.30;;;;;;5054959;28;19919;-74
2022/04/23 07:52:55;;;;;;;;;;;21.20;57.10;;;;;;5055033;28;20545;-74
2022/04/23 07:55:21;;;;;;;;;;;21.40;54.80;;;;;;5055438;28;19908;-74
2022/04/23 07:57:46;;;;;;;;;;;21.30;54.30;;;;;;5054787;28;20108;-74
2022/04/23 08:00:12;;;;;;;;;;;21.40;53.10;;;;;;5053690;28;19916;-74
2022/04/23 08:02:38;;;;;;;;;;;21.40;52.50;;;;;;5054802;28;19912;-74
2022/04/23 08:05:03;;;;;;;;;;;21.50;52.30;;;;;;5054718;28;20000;-74
2022/04/23 08:07:29;;;;;;;;;;;21.70;50.50;;;;;;5054087;28;20246;-74
2022/04/23 08:09:54;;;;;;;;;;;22.20;50.40;;;;;;5053565;28;20262;-74
2022/04/23 08:12:21;;;;;;;;;;;23.00;50.30;;;;;;5054612;28;19912;-75
2022/04/23 08:14:46;;;;;;;;;;;23.60;48.20;;;;;;5054575;28;19913;-74
2022/04/23 08:17:12;;;;;;;;;;;23.50;47.60;;;;;;5054535;28;19930;-73
2022/04/23 08:19:38;;;;;;;;;;;23.40;47.00;;;;;;5054882;28;20004;-73
2022/04/23 08:22:03;;;;;;;;;;;23.70;46.40;;;;;;5054630;28;19908;-74
2022/04/23 08:24:31;;;;;;;;;;;24.20;46.10;;;;;;5054259;28;20252;-73
2022/04/23 08:26:57;;;;;;;;;;;24.80;45.40;;;;;;5054198;28;19916;-73
2022/04/23 08:32:06;;;;;;;;;;;26.00;43.70;;;;;;5054608;28;19939;-73
2022/04/23 08:34:32;;;;;;;;;;;26.50;42.20;;;;;;5053546;28;19905;-74
2022/04/23 08:36:57;;;;;;;;;;;26.60;41.00;;;;;;5053999;28;20394;-75
2022/04/23 08:39:23;;;;;;;;;;;26.70;41.00;;;;;;5052581;28;19924;-73
2022/04/23 08:41:51;;;;;;;;;;;26.60;39.90;;;;;;5053977;28;19913;-73
2022/04/23 08:44:16;;;;;;;;;;;25.80;40.70;;;;;;5053811;28;19988;-74
2022/04/23 08:46:42;;;;;;;;;;;26.10;40.50;;;;;;5054198;28;20317;-74
2022/04/23 08:49:14;;;;;;;;;;;26.80;39.80;;;;;;5053939;28;19913;-74
2022/04/23 08:51:41;;;;;;;;;;;27.40;39.20;;;;;;5053952;28;19920;-73
2022/04/23 08:54:08;;;;;;;;;;;27.60;38.10;;;;;;5053884;28;19916;-71
2022/04/23 08:56:34;;;;;;;;;;;27.00;37.90;;;;;;5053581;28;19935;-74
2022/04/23 08:59:00;;;;;;;;;;;26.90;38.20;;;;;;5053555;28;19908;-74
2022/04/23 09:01:25;;;;;;;;;;;26.70;38.30;;;;;;5054178;28;19908;-74
2022/04/23 09:03:51;;;;;;;;;;;28.00;37.60;;;;;;5053615;28;20001;-74
2022/04/23 09:06:16;;;;;;;;;;;28.30;37.50;;;;;;5053594;28;20344;-75
2022/04/23 09:09:01;;;;;;;;;;;28.50;36.00;;;;;;5053495;28;20000;-75
2022/04/23 09:11:35;;;;;;;;;;;28.20;35.60;;;;;;5053433;28;19913;-74
2022/04/23 09:14:04;;;;;;;;;;;28.20;36.30;;;;;;5053210;28;19920;-74
2022/04/23 09:25:05;;;;;;;;;;;28.90;33.70;;;;;;5053298;28;19919;-74
2022/04/23 09:27:31;;;;;;;;;;;28.40;34.00;;;;;;5053157;28;20377;-74
2022/04/23 09:30:01;;;;;;;;;;;28.10;33.70;;;;;;5053326;28;19913;-74
2022/04/23 09:32:27;;;;;;;;;;;28.40;33.70;;;;;;5053191;28;19915;-74
2022/04/23 09:35:06;;;;;;;;;;;28.00;33.90;;;;;;5053105;28;20039;-75
2022/04/23 09:38:11;;;;;;;;;;;27.80;33.20;;;;;;5051930;28;19931;-74
2022/04/23 09:40:18;;;;;;;;;;;27.70;33.60;;;;;;5052826;28;20238;-74
2022/04/23 09:42:53;;;;;;;;;;;28.50;33.10;;;;;;5052662;28;20345;-75
2022/04/23 09:45:19;;;;;;;;;;;29.10;32.30;;;;;;5052757;28;19908;-76
2022/04/23 09:47:45;;;;;;;;;;;28.60;32.00;;;;;;5052898;28;19983;-75
2022/04/23 09:50:15;;;;;;;;;;;28.40;32.50;;;;;;5052883;28;20423;-75
2022/04/23 09:52:42;;;;;;;;;;;28.80;31.70;;;;;;5053311;28;19935;-75
2022/04/23 09:55:09;;;;;;;;;;;28.20;31.70;;;;;;5052842;28;19923;-74
2022/04/23 09:57:35;;;;;;;;;;;28.60;31.30;;;;;;5051507;28;19909;-75
2022/04/23 10:00:00;;;;;;;;;;;28.60;30.90;;;;;;5052591;28;19925;-74
2022/04/23 10:02:26;;;;;;;;;;;28.70;30.80;;;;;;5052667;28;19913;-75
2022/04/23 10:04:54;;;;;;;;;;;29.10;30.10;;;;;;5051445;28;19913;-74
2022/04/23 10:07:21;;;;;;;;;;;28.70;30.40;;;;;;5052624;28;19919;-73
2022/04/23 10:09:47;;;;;;;;;;;28.00;31.40;;;;;;5052357;28;19912;-75
2022/04/23 10:12:15;;;;;;;;;;;28.50;31.00;;;;;;5052378;28;19915;-74
2022/04/23 10:14:56;;;;;;;;;;;27.90;31.60;;;;;;5052247;28;19913;-73
2022/04/23 10:17:23;;;;;;;;;;;27.40;31.90;;;;;;5051186;28;19908;-73
2022/04/23 10:19:48;;;;;;;;;;;26.60;31.60;;;;;;5052418;28;19995;-72
2022/04/23 10:22:31;;;;;;;;;;;27.00;31.60;;;;;;5052853;28;20617;-74
2022/04/23 10:25:22;;;;;;;;;;;26.00;31.40;;;;;;5052332;28;19923;-74
2022/04/23 10:27:49;;;;;;;;;;;26.10;31.80;;;;;;5007774;28;19924;-75
2022/04/23 10:30:15;;;;;;;;;;;26.80;31.60;;;;;;5044159;28;20522;-73
2022/04/23 10:32:41;;;;;;;;;;;26.80;31.30;;;;;;5052214;28;19924;-74
2022/04/23 10:35:19;;;;;;;;;;;27.00;31.80;;;;;;5051858;28;19958;-74
2022/04/23 10:37:47;;;;;;;;;;;26.30;32.10;;;;;;5052195;28;19928;-73
2022/04/23 10:40:14;;;;;;;;;;;26.50;32.40;;;;;;5051649;28;19919;-74
2022/04/23 10:43:00;;;;;;;;;;;25.60;32.30;;;;;;5051904;28;19908;-74
2022/04/23 10:45:31;;;;;;;;;;;24.50;33.30;;;;;;5051366;28;20342;-73
2022/04/23 10:48:16;;;;;;;;;;;24.20;34.40;;;;;;5051693;28;19913;-73
2022/04/23 10:50:57;;;;;;;;;;;23.90;35.10;;;;;;5051517;28;19908;-73
2022/04/23 10:53:37;;;;;;;;;;;23.40;35.50;;;;;;5051731;28;20362;-75
2022/04/23 10:56:11;;;;;;;;;;;23.40;35.70;;;;;;5051720;28;19909;-75
2022/04/23 10:58:43;;;;;;;;;;;23.10;36.20;;;;;;5052217;28;20450;-74
2022/04/23 11:01:21;;;;;;;;;;;22.60;36.80;;;;;;5051246;28;19960;-74
2022/04/23 11:03:57;;;;;;;;;;;22.40;37.30;;;;;;5051425;28;19991;-73
2022/04/23 11:12:30;;;;;;;;;;;21.70;37.90;;;;;;5051342;28;20010;-74
2022/04/23 11:14:56;;;;;;;;;;;21.50;38.70;;;;;;5049710;28;19920;-74
2022/04/23 11:17:25;;;;;;;;;;;21.30;39.10;;;;;;5051411;28;20277;-74
2022/04/23 11:19:52;;;;;;;;;;;21.10;39.00;;;;;;5050434;28;20002;-74
2022/04/23 11:22:21;;;;;;;;;;;20.90;39.10;;;;;;5050510;28;19909;-74
2022/04/23 11:24:48;;;;;;;;;;;21.10;38.70;;;;;;5050027;28;20237;-75
2022/04/23 11:27:24;;;;;;;;;;;21.10;39.00;;;;;;5051128;28;19975;-73
2022/04/23 11:29:53;;;;;;;;;;;21.20;39.50;;;;;;5051373;28;20017;-74
2022/04/23 11:32:28;;;;;;;;;;;21.00;39.60;;;;;;5051089;28;19908;-75
2022/04/23 11:34:54;;;;;;;;;;;20.80;39.80;;;;;;5051061;28;19905;-74
2022/04/23 11:37:40;;;;;;;;;;;20.70;40.00;;;;;;5050359;28;19913;-74
2022/04/23 11:40:13;;;;;;;;;;;20.70;39.70;;;;;;5049575;28;19965;-74
2022/04/23 11:42:42;;;;;;;;;;;20.60;39.20;;;;;;5050688;28;19913;-74
2022/04/23 11:45:08;;;;;;;;;;;20.20;39.60;;;;;;5050932;28;19912;-73
2022/04/23 11:47:34;;;;;;;;;;;20.30;40.10;;;;;;5050983;28;19925;-74
2022/04/23 11:50:21;;;;;;;;;;;20.30;40.60;;;;;;5051335;28;19904;-74
2022/04/23 11:52:56;;;;;;;;;;;20.10;40.10;;;;;;5051818;28;19970;-74
2022/04/23 11:55:22;;;;;;;;;;;20.20;40.40;;;;;;5051047;28;19913;-73
2022/04/23 11:57:54;;;;;;;;;;;20.00;40.40;;;;;;5050899;28;19913;-74
2022/04/23 12:00:21;;;;;;;;;;;20.20;40.90;;;;;;5050855;28;19930;-73
2022/04/23 12:02:46;;;;;;;;;;;20.10;40.90;;;;;;5051210;28;19913;-73
2022/04/23 12:05:11;;;;;;;;;;;19.90;40.30;;;;;;5050755;28;19913;-74
2022/04/23 12:07:37;;;;;;;;;;;20.00;40.70;;;;;;5050164;28;19919;-74
2022/04/23 12:10:05;;;;;;;;;;;20.00;40.80;;;;;;5050906;28;19909;-74
2022/04/23 12:12:32;;;;;;;;;;;20.00;41.00;;;;;;5050727;28;19966;-73
2022/04/23 12:14:58;;;;;;;;;;;19.90;41.20;;;;;;5049625;28;19951;-73
2022/04/23 12:17:26;;;;;;;;;;;19.90;41.50;;;;;;5050734;28;19909;-74
2022/04/23 12:19:56;;;;;;;;;;;20.00;41.60;;;;;;5051030;28;20215;-74
2022/04/23 12:22:28;;;;;;;;;;;20.20;41.60;;;;;;5050014;28;20400;-75
2022/04/23 12:25:18;;;;;;;;;;;20.20;41.40;;;;;;5050828;28;19908;-74
2022/04/23 12:28:01;;;;;;;;;;;20.10;41.40;;;;;;5050689;28;19913;-74
2022/04/23 12:41:34;;;;;;;;;;;19.80;41.20;;;;;;5054014;28;19919;-73
2022/04/23 12:44:16;;;;;;;;;;;19.80;41.40;;;;;;5052782;28;19909;-74
2022/04/23 12:46:54;;;;;;;;;;;19.70;41.80;;;;;;5054190;28;19920;-73
2022/04/23 12:49:22;;;;;;;;;;;19.60;42.10;;;;;;5053122;28;19927;-73
2022/04/23 12:51:52;;;;;;;;;;;19.60;42.10;;;;;;5054315;28;19987;-73
2022/04/23 12:54:17;;;;;;;;;;;19.70;41.50;;;;;;5053064;28;19908;-73
2022/04/23 12:56:43;;;;;;;;;;;19.80;41.40;;;;;;5054132;28;19908;-74
2022/04/23 12:59:09;;;;;;;;;;;19.70;41.00;;;;;;5053647;28;19909;-74
2022/04/23 13:01:34;;;;;;;;;;;19.50;41.70;;;;;;5054751;28;19905;-74
2022/04/23 13:04:01;;;;;;;;;;;19.40;41.60;;;;;;5053739;28;20405;-74
2022/04/23 13:09:11;;;;;;;;;;;19.40;41.60;;;;;;5054074;28;19967;-74
2022/04/23 13:11:37;;;;;;;;;;;19.40;42.00;;;;;;5053618;28;20295;-75
2022/04/23 13:14:04;;;;;;;;;;;19.40;41.60;;;;;;5053472;28;20370;-74
2022/04/23 13:16:30;;;;;;;;;;;19.30;41.60;;;;;;5053958;28;20003;-74
2022/04/23 13:18:57;;;;;;;;;;;19.20;41.10;;;;;;5053568;28;20029;-73
2022/04/23 13:21:23;;;;;;;;;;;19.10;41.40;;;;;;5053269;28;19991;-74
2022/04/23 13:23:51;;;;;;;;;;;19.00;41.50;;;;;;5053004;28;19981;-74
2022/04/23 13:26:16;;;;;;;;;;;19.10;41.40;;;;;;5052620;28;20008;-74
2022/04/23 13:28:42;;;;;;;;;;;19.10;41.70;;;;;;5053513;28;20094;-75
2022/04/23 13:31:14;;;;;;;;;;;19.10;41.80;;;;;;5053000;28;19912;-74
2022/04/23 13:33:41;;;;;;;;;;;19.20;42.00;;;;;;5052859;28;19908;-74
2022/04/23 13:36:10;;;;;;;;;;;19.00;42.00;;;;;;5052904;28;19913;-75
2022/04/23 13:38:35;;;;;;;;;;;18.90;42.10;;;;;;5052583;28;19928;-75
2022/04/23 13:41:02;;;;;;;;;;;19.00;42.30;;;;;;5053097;28;19909;-75
2022/04/23 13:43:28;;;;;;;;;;;19.00;42.40;;;;;;5052559;28;19905;-76
2022/04/23 13:45:54;;;;;;;;;;;19.00;42.30;;;;;;5052838;28;20011;-74
2022/04/23 13:48:20;;;;;;;;;;;18.90;42.60;;;;;;5052903;28;20003;-75
2022/04/23 13:50:46;;;;;;;;;;;19.00;42.70;;;;;;5053452;28;19912;-75
2022/04/23 13:53:11;;;;;;;;;;;19.00;42.60;;;;;;5054207;28;20015;-74
2022/04/23 13:55:37;;;;;;;;;;;18.90;42.60;;;;;;5053900;28;19905;-74
2022/04/23 13:58:03;;;;;;;;;;;18.90;42.30;;;;;;5052671;28;19968;-74
2022/04/23 14:00:29;;;;;;;;;;;18.80;42.60;;;;;;5052464;28;19969;-75
2022/04/23 14:11:12;;;;;;;;;;;18.70;42.70;;;;;;5052279;28;19911;-75
2022/04/23 14:13:40;;;;;;;;;;;18.70;42.60;;;;;;5052686;28;19916;-74
2022/04/23 14:16:13;;;;;;;;;;;18.70;42.70;;;;;;5051103;28;19923;-73
2022/04/23 14:18:39;;;;;;;;;;;18.80;42.80;;;;;;5052066;28;19991;-74
2022/04/23 14:21:04;;;;;;;;;;;18.80;42.70;;;;;;5052097;28;19908;-74
2022/04/23 14:23:48;;;;;;;;;;;18.90;42.90;;;;;;5052258;28;19913;-74
2022/04/23 14:26:14;;;;;;;;;;;18.90;42.70;;;;;;5051927;28;19943;-75
2022/04/23 14:28:40;;;;;;;;;;;18.90;42.70;;;;;;5052236;28;19931;-76
2022/04/23 14:31:12;;;;;;;;;;;18.80;42.30;;;;;;5050840;28;20342;-75
2022/04/23 14:33:37;;;;;;;;;;;18.70;42.40;;;;;;5050753;28;20271;-74
2022/04/23 14:36:03;;;;;;;;;;;18.60;42.70;;;;;;5051815;28;19988;-74
2022/04/23 14:38:29;;;;;;;;;;;18.60;43.10;;;;;;5051333;28;19928;-75
2022/04/23 14:40:55;;;;;;;;;;;18.50;43.30;;;;;;5051507;28;20361;-73
2022/04/23 14:43:20;;;;;;;;;;;18.50;43.60;;;;;;5052190;28;19900;-75
2022/04/23 14:45:46;;;;;;;;;;;18.50;43.60;;;;;;5051708;28;20239;-76
2022/04/23 14:48:11;;;;;;;;;;;18.50;43.80;;;;;;5033966;28;19932;-74
2022/04/23 14:53:21;;;;;;;;;;;18.50;43.80;;;;;;5051350;28;19951;-74
2022/04/23 14:55:47;;;;;;;;;;;18.60;43.90;;;;;;5051889;28;19952;-75
2022/04/23 14:58:13;;;;;;;;;;;18.70;43.80;;;;;;5051466;28;20061;-75
2022/04/23 15:00:39;;;;;;;;;;;18.70;43.70;;;;;;5051766;28;19948;-74
2022/04/23 15:03:05;;;;;;;;;;;18.70;43.90;;;;;;5051412;28;20345;-75
2022/04/23 15:05:30;;;;;;;;;;;18.80;43.70;;;;;;5051305;28;19912;-76
2022/04/23 15:07:56;;;;;;;;;;;18.60;43.40;;;;;;5050463;28;20020;-74